UNR Ag. Experiment Farm, Sparks, Nevada Weather observations

Data are for 10 minute period ending at time listed.
 Day   Time   Solar   Ave.   Ave.  Ave.  Vector  Max.   Baro.   Total    
  of    of     Rad.   Air    Rel.  Wind   Wind   Wind  Press.  Precip.   
Year   Day            Temp.  Hum.  Speed  Dir.   Gust                    
2016   (PST)  Kw/m2    F      %     mph   deg.    mph    mb.     in.     
-------------------------------------------------------------------------
 123   10:00   0.74   61.0    44    2.5   325     5.5   868.2    0.00 
 123   10:10   0.77   63.0    37    2.1    63     5.3   868.2    0.00 
 123   10:20   0.79   62.8    39    3.6    56     6.3   868.2    0.00 
 123   10:30   0.81   63.7    35    2.7    92     7.8   868.3    0.00 
 123   10:40   0.84   64.4    34    3.5   149    13.4   868.3    0.00 
 123   10:50   0.88   64.6    33    3.6   107     7.9   868.4    0.00 
 123   11:00   0.92   65.1    33    3.4    89     8.6   868.3    0.00 
 123   11:10   0.47   64.3    34    3.7    61     8.0   868.3    0.00 
 123   11:20   0.98   64.3    37    5.3     3     9.1   868.2    0.00 
 123   11:30   1.00   65.9    32    4.9   127    10.6   868.1    0.00 
 123   11:40   0.95   66.3    30    6.1   138    11.0   868.0    0.00 
 123   11:50   0.94   65.8    31    3.3     7     5.8   867.9    0.00 
 123   12:00   0.82   66.7    30    3.6   178     8.5   867.9    0.00 
 123   12:10   0.56   66.5    27    5.1   168    10.6   867.8    0.00 
 123   12:20   1.00   67.2    31    3.0    69     7.6   867.7    0.00 
 123   12:30   0.96   67.6    27    6.4   153    12.1   867.6    0.00 
 123   12:40   0.98   67.3    27    5.8   154    11.1   867.5    0.00 
 123   12:50   0.67   67.5    27    3.9   108     8.9   867.5    0.00 
 123   13:00   0.40   66.8    26    3.9   178     7.1   867.5    0.00 
 123   13:10   0.37   65.8    27    2.9   163     6.8   867.5    0.00 
 123   13:20   0.24   66.5    26    3.2   143     7.1   867.3    0.00 
 123   13:30   0.23   66.4    29    6.6   129     9.7   867.2    0.00 
 123   13:40   0.24   66.3    28    7.2   140    12.0   867.2    0.00 
 123   13:50   0.26   66.2    29    6.8   120     9.7   867.0    0.00 
 123   14:00   0.33   66.0    28    8.0   100    11.8   866.9    0.00 
 123   14:10   0.71   67.0    28    8.2    86    11.5   866.8    0.00 
 123   14:20   0.43   66.4    30    9.4    72    13.7   866.7    0.00 
 123   14:30   0.32   66.6    30    9.1    76    15.3   866.6    0.00 
 123   14:40   0.27   65.9    30    7.9    75    13.4   866.6    0.00 
 123   14:50   0.25   65.9    29    6.2    84    10.5   866.6    0.00 
 123   15:00   0.39   66.7    28    4.6    77    10.8   866.5    0.00 
 123   15:10   0.47   67.7    27    5.6    97    12.0   866.4    0.00 
 123   15:20   0.39   67.7    27    7.4   108    12.6   866.3    0.00 
 123   15:30   0.51   67.9    25    4.7   124     9.9   866.3    0.00 
 123   15:40   0.40   68.5    25    3.0   101     6.1   866.4    0.00 
 123   15:50   0.39   67.6    27    3.2   339     6.4   866.4    0.00 
 123   16:00   0.47   67.2    27    3.6   290     6.3   866.4    0.00 
 123   16:10   0.56   69.6    24    0.9   343     3.9   866.4    0.00 
 123   16:20   0.47   69.3    25    2.6     5     5.5   866.3    0.00 
 123   16:30   0.42   68.2    27    3.7   348     8.4   866.2    0.00 
 123   16:40   0.48   68.6    27    8.0    73    12.8   866.2    0.00 
 123   16:50   0.44   68.9    26    6.5    70    10.0   866.2    0.00 
 123   17:00   0.38   68.4    26    6.1    94     8.6   866.2    0.00 
 123   17:10   0.43   68.9    26    6.1    85     9.7   866.1    0.00 
 123   17:20   0.37   69.3    24    4.3   104     8.8   866.1    0.00 
 123   17:30   0.33   68.8    26    5.8    82     8.8   866.0    0.00 
 123   17:40   0.28   68.8    24    5.2    97    12.3   866.0    0.00 
 123   17:50   0.23   68.4    26    4.7    84     7.3   866.0    0.00 
 123   18:00   0.12   67.9    25    4.6    96     7.2   865.9    0.00 
 123   18:10   0.05   66.6    26    3.0   141     4.7   865.9    0.00 
 123   18:20   0.06   67.0    25    3.9   237     5.6   866.0    0.00 
 123   18:30   0.07   65.9    29    3.7   265     6.0   866.0    0.00 
 123   18:40   0.03   63.7    32    4.0   270     6.0   866.0    0.00 
 123   18:50   0.01   63.0    32    3.3   277     4.6   866.0    0.00 
 123   19:00   0.00   62.4    33    3.9   279     5.6   865.8    0.00 
 123   19:10   0.00   60.2    36    2.9   282     4.1   865.8    0.00 
 123   19:20   0.00   59.8    38    1.8   132     3.6   865.8    0.00 
 123   19:30   0.00   59.5    36    2.2   137     3.1   865.8    0.00 
 123   19:40   0.00   60.0    37    1.9   161     3.0   865.9    0.00 
 123   19:50   0.00   57.5    42    1.6   136     2.6   866.1    0.00 
 123   20:00   0.00   56.4    44    1.5   229     3.3   866.3    0.00 
 123   20:10   0.00   57.3    41    3.4   229     5.4   866.4    0.00 
 123   20:20   0.00   58.2    39    3.1   261     3.9   866.5    0.00 
 123   20:30   0.00   58.3    40    2.6   242     3.9   866.5    0.00 
 123   20:40   0.00   56.6    42    2.0   184     2.7   866.6    0.00 
 123   20:50   0.00   55.3    45    1.9   148     2.9   866.8    0.00 
 123   21:00   0.00   53.6    50    2.5   139     3.9   866.8    0.00 
 123   21:10   0.00   51.8    54    4.0   148     5.8   866.9    0.00 
 123   21:20   0.00   52.1    53    3.1   139     5.0   867.0    0.00 
 123   21:30   0.00   51.6    54    0.7   334     3.3   867.1    0.00 
 123   21:40   0.00   50.0    60    0.8   331     3.0   867.1    0.00 
 123   21:50   0.00   51.2    56    1.1   173     2.5   867.2    0.00 
 123   22:00   0.00   51.0    56    1.7   153     2.3   867.3    0.00 
 123   22:10   0.00   50.3    58    1.7   147     2.7   867.4    0.00 
 123   22:20   0.00   50.5    59    1.1   140     2.2   867.4    0.00 
 123   22:30   0.00   52.1    55    0.6    67     2.1   867.5    0.00 
 123   22:40   0.00   50.8    58    0.5    50     1.8   867.5    0.00 
 123   22:50   0.00   48.0    63    0.5   174     1.2   867.6    0.00 
 123   23:00   0.00   47.8    65    0.1   177     0.6   867.7    0.00 
 123   23:10   0.00   47.2    67    0.1   216     1.4   867.7    0.00 
 123   23:20   0.00   46.0    72    0.6   219     2.3   867.7    0.00 
 123   23:30   0.00   47.0    71    1.4   174     3.4   867.7    0.00 
 123   23:40   0.00   47.5    71    2.1   154     2.8   867.8    0.00 
 123   23:50   0.00   45.1    74    2.5   156     3.2   867.9    0.00 
 124    0:00   0.00   45.1    77    1.9   172     2.4   867.9    0.00 
 124    0:10   0.00   44.6    77    2.0   158     2.6   867.8    0.00 
 124    0:20   0.00   43.8    79    1.6   130     2.5   867.8    0.00 
 124    0:30   0.00   43.1    81    2.5   150     3.3   867.8    0.00 
 124    0:40   0.00   43.2    82    2.3   177     3.5   867.7    0.00 
 124    0:50   0.00   43.4    80    2.7   160     4.2   867.7    0.00 
 124    1:00   0.00   42.9    79    2.9   167     4.4   867.6    0.00 
 124    1:10   0.00   42.3    80    1.5   174     2.0   867.6    0.00 
 124    1:20   0.00   42.7    80    3.2   137     4.5   867.6    0.00 
 124    1:30   0.00   42.6    78    3.3   141     4.3   867.7    0.00 
 124    1:40   0.00   43.2    77    3.7   154     4.7   867.7    0.00 
 124    1:50   0.00   42.4    79    3.1   134     4.2   867.8    0.00 
 124    2:00   0.00   42.9    78    3.4   162     4.0   867.9    0.00 
 124    2:10   0.00   43.5    75    2.7   184     3.5   867.8    0.00 
 124    2:20   0.00   43.5    75    1.9   139     3.9   867.8    0.00 
 124    2:30   0.00   42.3    78    0.6   215     1.4   867.9    0.00 
 124    2:40   0.00   42.5    80    0.4   231     1.1   868.0    0.00 
 124    2:50   0.00   43.2    79    1.0   231     1.8   868.0    0.00 
 124    3:00   0.00   44.0    74    0.8   223     1.8   868.0    0.00 
 124    3:10   0.00   41.2    77    0.3   206     0.9   868.0    0.00 
 124    3:20   0.00   40.1    83    1.7   169     2.6   868.1    0.00 
 124    3:30   0.00   39.5    84    0.5   160     2.0   868.0    0.00 
 124    3:40   0.00   40.0    85    2.1   167     2.9   868.0    0.00 
 124    3:50   0.00   39.4    85    1.5   255     2.0   868.0    0.00 
 124    4:00   0.00   39.3    86    0.5   311     2.3   868.1    0.00 
 124    4:10   0.00   39.2    86    1.7    77     3.7   868.1    0.00 
 124    4:20   0.00   39.4    88    3.7   143     4.7   868.2    0.00 
 124    4:30   0.00   40.6    83    2.0   134     3.8   868.3    0.00 
 124    4:40   0.00   40.1    84    1.7   161     2.6   868.3    0.00 
 124    4:50   0.00   39.7    84    0.8   210     2.3   868.4    0.00 
 124    5:00   0.01   38.9    85    0.1   231     0.9   868.4    0.00 
 124    5:10   0.01   38.4    86    0.0   320     0.5   868.4    0.00 
 124    5:20   0.02   39.0    88    0.4   320     0.9   868.5    0.00 
 124    5:30   0.04   39.0    88    0.1   321     0.7   868.5    0.00 
 124    5:40   0.07   40.2    88    0.5   321     1.0   868.6    0.00 
 124    5:50   0.08   42.1    87    0.1   321     0.6   868.7    0.00 
 124    6:00   0.10   42.4    83    0.7   348     2.9   868.8    0.00 
 124    6:10   0.13   43.2    84    0.0   349     0.4   868.8    0.00 
 124    6:20   0.16   45.8    78    1.2   101     1.9   868.8    0.00 
 124    6:30   0.18   47.7    70    0.4   138     1.6   868.8    0.00 
 124    6:40   0.21   50.1    65    0.3    71     1.3   868.8    0.00 
 124    6:50   0.24   52.1    60    0.5   100     2.0   868.8    0.00 
 124    7:00   0.27   52.5    59    1.2    92     2.7   868.7    0.00 
 124    7:10   0.29   52.6    59    1.2   107     3.1   868.7    0.00 
 124    7:20   0.33   53.7    58    1.0    60     2.6   868.7    0.00 
 124    7:30   0.37   55.7    54    0.5    57     1.9   868.6    0.00 
 124    7:40   0.41   54.7    56    1.6   318     3.4   868.5    0.00 
 124    7:50   0.37   54.0    57    1.0   270     2.6   868.4    0.00 
 124    8:00   0.44   55.3    56    1.1    32     2.7   868.4    0.00 
 124    8:10   0.47   58.0    52    0.9    54     2.5   868.4    0.00 
 124    8:20   0.51   59.1    49    0.9    56     2.9   868.4    0.00 
 124    8:30   0.53   57.9    51    1.3   341     2.9   868.3    0.00 
 124    8:40   0.52   58.6    50    1.1   316     2.3   868.3    0.00 
 124    8:50   0.58   59.1    49    1.4     4     3.4   868.3    0.00 
 124    9:00   0.62   60.2    48    1.7   339     3.6   868.3    0.00 
 124    9:10   0.64   60.3    46    2.0   338     4.0   868.3    0.00 
 124    9:20   0.66   60.4    47    2.7     6     4.5   868.3    0.00 
 124    9:30   0.70   61.2    47    2.9    15     5.2   868.3    0.00 
 124    9:40   0.69   62.0    46    2.6   350     5.1   868.4    0.00 
 124    9:50   0.69   62.7    44    2.6   358     5.0   868.3    0.00 

Return to Sparks, Nevada, UNR Ag Experiment Farm graphs page.


Western Regional Climate Center,wrcc@dri.edu